LTBL/IGI METAR and TAF weather

Enter ICAO airport designator
Station Type Date Time Source
LTBL METAR 2020/08/05 15:50 UTC NOAA

LTBL 051550Z 30010KT CAVOK 31/18 Q1005 NOSIG RMK RWY17 29008KT


Station Type Date Time Source
LTBL Decoded METAR 2020/08/05 15:50 UTC NOAA

Izmir / Cigli, Turkey (LTBL) 38-30N 027-01E 5M
Aug 05, 2020 - 11:50 AM EDT / 2020.08.05 1550 UTC
Wind: from the WNW (300 degrees) at 12 MPH (10 KT):0
Visibility: greater than 7 mile(s):0
Temperature: 87 F (31 C)
Dew Point: 64 F (18 C)
Relative Humidity: 45%
Pressure (altimeter): 29.68 in. Hg (1005 hPa)
ob: LTBL 051550Z 30010KT CAVOK 31/18 Q1005 NOSIG RMK RWY17 29008KT
cycle: 16

Station Type Date Time Source
LTBL TAF UTC NOAA

Error!

Example: see airport list